08:30
Airports
History
Links
Donate
Help keep this website running!
PayPal
Bitcoin
Information on this page is community maintained and may be outdated or inaccurate and is intended for reference only or PC simulator navigating.
Always use approved charts for navigating.
LILB
Alzate Brianza
Alzate Brianza (LILB)
Alzate Brianza, Lombardia, Italy (22040)
(U)
Lat/Lng:45° 46' 10" N / 9° 9' 40" E
45.769444 / 9.161111
Elevation:1260'ft 384mMSL
ID / ICAO:LILB
Runways:1
Longest:(21-03) 595.5m 1,954ft Asphalt
Distance To
Airport ID:
Nearby VORs <50NM
Nearby NDBs
Nearby WeatherUpdated 07-24-17 08:20 GMT
Nearby weather at LSZA, Lugano located 20.2 nautical miles from LILB
Altimeter: 29.71
Visibility: 6.2 statute miles
Wind: 2 knots (VRB°)
Temp: 19°c 66°f
Humidity: 88.2%

METAR: LSZA 240820Z VRB02KT 9999 VCSH SCT060TCU BKN120 19/17 Q1006 NOSIG

(Powered by phpweather)
Runway 21 / 03
Dimensions:595.5 x 14.9m 1954' x 49'ft
Surface:Asphalt
Runway 21 [A]Runway 03 [B]
Heading:213°TH 033°TH
Lat:
Lng:
45° 46' 18.05"N
9° 9' 47.79"E
45° 46' 1.94"N
9° 9' 32.21"E
User Notes and Comments
Google Map
Nearby Airports
(U) VENEGONO 13.3 NM
LILN W 261°
(U) Bresso 16.0 NM
LIMB S 172°
4 Calcinate del Pesce 19.1 NM
LILC W 278°
(C) Lugano 20.2 NM
LSZA (WX) NW 323°
4 Valbrembo 21.1 NM
LILV E 99°
(C) Milano Linate 23.0 NM
LIML (WX) SSE 166°
(C) Milano Malpensa 23.0 NM
LIMC (WX) WSW 245°
VFR Chart
Flight Planning at SkyVector.com